Time;durP1;ratioP1;P1;durP2;ratioP2;P2;SDS_P1;SDS_P2;PMS_P1;PMS_P2;Temp;Humidity;BMP_temperature;BMP_pressure;BME280_temperature;BME280_humidity;BME280_pressure;Samples;Min_cycle;Max_cycle;Signal;HPM_P1;HPM_P2
2022/09/24 00:01:15;;;;;;;4.18;1.10;;;12.60;99.90;;;;;;4989972;28;20397;-60
2022/09/24 00:03:44;;;;;;;3.20;1.13;;;12.60;99.90;;;;;;4982636;28;20125;-61
2022/09/24 00:06:14;;;;;;;2.28;1.00;;;12.60;99.90;;;;;;4990165;28;20045;-60
2022/09/24 00:08:40;;;;;;;5.75;1.60;;;12.60;99.90;;;;;;4986005;28;20077;-61
2022/09/24 00:11:10;;;;;;;3.00;1.05;;;12.50;99.90;;;;;;4985111;28;20026;-61
2022/09/24 00:13:36;;;;;;;2.13;0.82;;;12.60;99.90;;;;;;4986314;28;20447;-61
2022/09/24 00:16:06;;;;;;;6.57;1.02;;;12.60;99.90;;;;;;4989830;28;20557;-61
2022/09/24 00:18:32;;;;;;;3.65;1.23;;;12.60;99.90;;;;;;4985140;28;20034;-61
2022/09/24 00:20:59;;;;;;;1.83;1.10;;;12.60;99.90;;;;;;4989961;28;20034;-61
2022/09/24 00:23:25;;;;;;;4.20;1.20;;;12.60;99.90;;;;;;4987957;28;20018;-61
2022/09/24 00:28:35;;;;;;;1.55;1.00;;;12.50;99.90;;;;;;4985536;28;20509;-61
2022/09/24 00:31:06;;;;;;;3.00;1.02;;;12.50;99.90;;;;;;4984644;28;20019;-60
2022/09/24 00:33:34;;;;;;;1.20;1.08;;;12.50;99.90;;;;;;4986093;28;20113;-61
2022/09/24 00:36:03;;;;;;;3.80;0.98;;;12.50;99.90;;;;;;4984882;28;20026;-61
2022/09/24 00:38:30;;;;;;;6.10;1.45;;;12.40;99.90;;;;;;4987400;28;20034;-60
2022/09/24 00:40:56;;;;;;;1.77;1.10;;;12.40;99.90;;;;;;4988982;28;20034;-63
2022/09/24 00:43:34;;;;;;;3.83;1.25;;;12.30;99.90;;;;;;4986401;28;20034;-61
2022/09/24 00:46:13;;;;;;;5.68;1.20;;;12.40;99.90;;;;;;4983520;28;20482;-62
2022/09/24 00:48:42;;;;;;;7.97;1.30;;;12.40;99.90;;;;;;4986579;28;21893;-62
2022/09/24 00:51:11;;;;;;;1.10;0.77;;;12.40;99.90;;;;;;4988915;28;20018;-61
2022/09/24 00:53:37;;;;;;;2.13;1.92;;;12.40;99.90;;;;;;4987756;28;20069;-62
2022/09/24 00:56:04;;;;;;;2.65;1.20;;;12.30;99.90;;;;;;4988751;28;20054;-62
2022/09/24 00:58:30;;;;;;;1.77;1.10;;;12.30;99.90;;;;;;4985262;28;20032;-61
2022/09/24 01:01:06;;;;;;;3.95;0.90;;;12.30;99.90;;;;;;4988815;28;20061;-61
2022/09/24 01:03:39;;;;;;;3.00;1.15;;;12.20;99.90;;;;;;4987007;28;20022;-60
2022/09/24 01:06:06;;;;;;;2.17;1.00;;;12.30;99.90;;;;;;4988707;28;20029;-61
2022/09/24 01:08:32;;;;;;;1.95;0.98;;;12.30;99.90;;;;;;4987263;28;20113;-60
2022/09/24 01:11:06;;;;;;;1.85;0.80;;;12.30;99.90;;;;;;4989867;28;20112;-61
2022/09/24 01:14:05;;;;;;;1.67;0.90;;;12.30;99.90;;;;;;4985977;28;20018;-61
2022/09/24 01:17:00;;;;;;;1.30;0.80;;;12.20;99.90;;;;;;4984392;28;20038;-61
2022/09/24 01:19:57;;;;;;;1.30;0.60;;;12.20;99.90;;;;;;4987122;28;20085;-61
2022/09/24 01:22:49;;;;;;;2.17;0.73;;;12.20;99.90;;;;;;4986270;28;20022;-61
2022/09/24 01:25:46;;;;;;;0.70;0.70;;;12.20;99.90;;;;;;4988059;28;20413;-61
2022/09/24 01:28:26;;;;;;;2.65;1.65;;;12.20;99.90;;;;;;4986734;28;20058;-62
2022/09/24 01:31:02;;;;;;;2.33;0.80;;;12.20;99.90;;;;;;4987632;28;20019;-62
2022/09/24 01:33:31;;;;;;;3.80;1.00;;;12.10;99.90;;;;;;4985953;28;20038;-61
2022/09/24 01:36:03;;;;;;;5.38;1.05;;;12.10;99.90;;;;;;4989140;28;20027;-62
2022/09/24 01:38:34;;;;;;;6.07;1.92;;;12.10;99.90;;;;;;4980909;28;20596;-62
2022/09/24 01:41:02;;;;;;;4.28;0.90;;;12.00;99.90;;;;;;4987743;28;20081;-61
2022/09/24 01:43:29;;;;;;;2.83;1.35;;;12.00;99.90;;;;;;4983016;28;20554;-61
2022/09/24 01:46:02;;;;;;;0.90;0.75;;;11.90;99.90;;;;;;4988198;28;20030;-61
2022/09/24 01:48:29;;;;;;;4.10;1.00;;;11.90;99.90;;;;;;4986557;28;20125;-61
2022/09/24 01:51:15;;;;;;;2.55;1.10;;;11.90;99.90;;;;;;4989192;28;20098;-62
2022/09/24 01:53:46;;;;;;;2.70;0.88;;;11.90;99.90;;;;;;4986393;28;20947;-61
2022/09/24 01:56:33;;;;;;;1.37;0.90;;;11.90;99.90;;;;;;4991599;28;20422;-59
2022/09/24 01:59:11;;;;;;;3.38;1.17;;;11.80;99.90;;;;;;4985619;28;20031;-61
2022/09/24 02:02:03;;;;;;;2.53;1.10;;;11.90;99.90;;;;;;4977928;28;20030;-62
2022/09/24 02:04:31;;;;;;;1.73;0.90;;;11.80;99.90;;;;;;4984605;28;20117;-62
2022/09/24 02:07:04;;;;;;;1.45;0.85;;;11.80;99.90;;;;;;4986937;28;20081;-61
2022/09/24 02:09:36;;;;;;;3.83;1.40;;;11.80;99.90;;;;;;4980539;28;20483;-61
2022/09/24 02:12:16;;;;;;;1.10;1.00;;;11.70;99.90;;;;;;4990831;28;20028;-60
2022/09/24 02:14:49;;;;;;;3.67;1.52;;;11.70;99.90;;;;;;4982620;28;20041;-61
2022/09/24 02:17:15;;;;;;;4.32;1.08;;;11.60;99.90;;;;;;4990894;28;20034;-61
2022/09/24 02:19:42;;;;;;;6.38;1.00;;;11.70;99.90;;;;;;4989806;28;20034;-61
2022/09/24 02:22:11;;;;;;;1.73;1.17;;;11.70;99.90;;;;;;4990908;28;20114;-61
2022/09/24 02:24:49;;;;;;;1.75;0.82;;;11.60;99.90;;;;;;4989630;28;20078;-61
2022/09/24 02:27:16;;;;;;;2.70;1.38;;;11.50;99.90;;;;;;4987747;28;20030;-61
2022/09/24 02:29:43;;;;;;;0.90;0.80;;;11.50;99.90;;;;;;4990577;28;21911;-61
2022/09/24 02:32:13;;;;;;;1.38;1.25;;;11.40;99.90;;;;;;4991481;28;20031;-61
2022/09/24 02:34:46;;;;;;;1.52;1.17;;;11.40;99.90;;;;;;4990725;28;20156;-60
2022/09/24 02:37:13;;;;;;;;;;;11.30;99.90;;;;;;4990183;28;20021;-61
2022/09/24 02:39:39;;;;;;;1.60;0.95;;;11.20;99.90;;;;;;4990688;28;20008;-61
2022/09/24 02:42:06;;;;;;;3.67;1.08;;;11.20;99.90;;;;;;4990972;28;20025;-60
2022/09/24 02:44:35;;;;;;;3.60;1.00;;;11.10;99.90;;;;;;4988931;28;20170;-61
2022/09/24 02:47:01;;;;;;;2.25;0.95;;;11.10;99.90;;;;;;4997773;28;20014;-61
2022/09/24 02:49:27;;;;;;;4.65;1.42;;;11.10;99.90;;;;;;4989400;28;20050;-61
2022/09/24 02:51:54;;;;;;;2.05;1.00;;;11.00;99.90;;;;;;4992938;28;20057;-61
2022/09/24 02:54:21;;;;;;;2.55;1.10;;;11.00;99.90;;;;;;4992261;28;20022;-61
2022/09/24 02:56:47;;;;;;;5.55;1.33;;;11.00;99.90;;;;;;4998723;28;20030;-61
2022/09/24 02:59:13;;;;;;;2.40;1.58;;;11.00;99.90;;;;;;4996783;28;20031;-60
2022/09/24 03:01:39;;;;;;;6.60;2.08;;;11.00;99.90;;;;;;4993640;28;20087;-61
2022/09/24 03:04:05;;;;;;;1.88;1.17;;;11.00;99.90;;;;;;5000538;28;20033;-61
2022/09/24 03:06:31;;;;;;;1.67;1.20;;;11.00;99.90;;;;;;4995363;28;20395;-61
2022/09/24 03:08:57;;;;;;;1.90;1.17;;;11.00;99.90;;;;;;4990104;28;20023;-61
2022/09/24 03:11:23;;;;;;;3.08;1.25;;;11.00;99.90;;;;;;4994045;28;20113;-62
2022/09/24 03:13:49;;;;;;;2.75;1.48;;;10.90;99.90;;;;;;4999024;28;20048;-61
2022/09/24 03:16:16;;;;;;;3.45;1.60;;;10.90;99.90;;;;;;4994533;28;20398;-61
2022/09/24 03:18:42;;;;;;;4.30;1.63;;;10.90;99.90;;;;;;4988824;28;20029;-62
2022/09/24 03:21:11;;;;;;;2.28;1.40;;;10.80;99.90;;;;;;4995191;28;20030;-62
2022/09/24 03:23:37;;;;;;;2.78;1.10;;;10.80;99.90;;;;;;4996259;28;20500;-61
2022/09/24 03:26:03;;;;;;;2.00;1.30;;;10.80;99.90;;;;;;4998730;28;20031;-61
2022/09/24 03:28:30;;;;;;;5.13;1.55;;;10.80;99.90;;;;;;4985417;28;20060;-59
2022/09/24 03:30:58;;;;;;;5.45;1.20;;;10.80;99.90;;;;;;4997101;28;20041;-61
2022/09/24 03:33:40;;;;;;;2.28;1.27;;;10.70;99.90;;;;;;4992746;28;20014;-61
2022/09/24 03:36:19;;;;;;;6.68;1.58;;;10.70;99.90;;;;;;4991355;28;20045;-61
2022/09/24 03:38:46;;;;;;;5.45;1.55;;;10.70;99.90;;;;;;4990965;28;20033;-61
2022/09/24 03:41:12;;;;;;;2.90;1.42;;;10.70;99.90;;;;;;4990658;28;20041;-61
2022/09/24 03:43:38;;;;;;;2.60;1.08;;;10.60;99.90;;;;;;5020598;23;20054;-59
2022/09/24 03:46:08;;;;;;;4.15;1.58;;;10.60;99.90;;;;;;5010905;28;20026;-59
2022/09/24 03:48:36;;;;;;;2.70;1.00;;;10.60;99.90;;;;;;5010712;28;20022;-61
2022/09/24 03:51:05;;;;;;;3.10;1.33;;;10.60;99.90;;;;;;5010588;28;20042;-59
2022/09/24 03:53:31;;;;;;;4.85;1.60;;;10.60;99.90;;;;;;5008640;28;20034;-60
2022/09/24 03:55:58;;;;;;;1.75;1.58;;;10.60;99.90;;;;;;5010489;28;20029;-60
2022/09/24 03:58:24;;;;;;;3.65;1.70;;;10.60;99.90;;;;;;5007333;28;20026;-60
2022/09/24 04:00:52;;;;;;;3.53;1.63;;;10.60;99.90;;;;;;5010569;28;20461;-60
2022/09/24 04:03:20;;;;;;;4.32;1.35;;;10.60;99.90;;;;;;5007200;28;20440;-60
2022/09/24 04:05:46;;;;;;;3.95;1.65;;;10.60;99.90;;;;;;5008947;28;20385;-60
2022/09/24 04:08:11;;;;;;;3.08;1.20;;;10.60;99.90;;;;;;5005554;28;20021;-60
2022/09/24 04:10:37;;;;;;;5.20;2.45;;;10.50;99.90;;;;;;5007843;28;20033;-60
2022/09/24 04:13:03;;;;;;;6.80;1.92;;;10.50;99.90;;;;;;5006518;28;20418;-61
2022/09/24 04:15:29;;;;;;;8.40;2.10;;;10.50;99.90;;;;;;5009043;28;20030;-60
2022/09/24 04:17:57;;;;;;;4.82;1.60;;;10.50;99.90;;;;;;5003699;28;20496;-59
2022/09/24 04:20:25;;;;;;;4.70;2.63;;;10.40;99.90;;;;;;5008479;28;20057;-60
2022/09/24 04:22:53;;;;;;;3.92;1.88;;;10.30;99.90;;;;;;5009734;28;20057;-60
2022/09/24 04:25:20;;;;;;;6.55;2.13;;;10.30;99.90;;;;;;5006447;28;20121;-60
2022/09/24 04:27:51;;;;;;;2.15;1.77;;;10.20;99.90;;;;;;5006692;28;20032;-60
2022/09/24 04:30:17;;;;;;;5.70;1.38;;;10.20;99.90;;;;;;5010060;28;20116;-60
2022/09/24 04:32:43;;;;;;;6.25;2.00;;;10.10;99.90;;;;;;5007536;28;20157;-61
2022/09/24 04:35:09;;;;;;;7.90;2.15;;;10.10;99.90;;;;;;5010028;28;20041;-61
2022/09/24 04:37:35;;;;;;;4.43;2.78;;;10.10;99.90;;;;;;5006486;28;20018;-61
2022/09/24 04:40:11;;;;;;;4.93;2.10;;;10.00;99.90;;;;;;5009709;28;20041;-60
2022/09/24 04:42:39;;;;;;;3.85;2.42;;;10.00;99.90;;;;;;4996661;28;20052;-61
2022/09/24 04:45:06;;;;;;;2.42;2.05;;;10.00;99.90;;;;;;5003327;28;20112;-60
2022/09/24 04:47:33;;;;;;;6.00;1.92;;;10.00;99.90;;;;;;5006798;28;20025;-61
2022/09/24 04:50:00;;;;;;;7.10;2.35;;;10.00;99.90;;;;;;5017216;28;20022;-61
2022/09/24 04:52:28;;;;;;;8.07;2.25;;;9.90;99.90;;;;;;5002110;28;20088;-61
2022/09/24 04:54:56;;;;;;;4.75;2.50;;;9.90;99.90;;;;;;5009802;28;20519;-60
2022/09/24 04:57:22;;;;;;;4.18;2.90;;;9.90;99.90;;;;;;5005928;28;20026;-61
2022/09/24 04:59:48;;;;;;;3.88;2.42;;;9.80;99.90;;;;;;5008636;28;20026;-61
2022/09/24 05:02:13;;;;;;;5.90;3.08;;;9.80;99.90;;;;;;5008206;28;20056;-60
2022/09/24 05:04:39;;;;;;;5.18;2.75;;;9.70;99.90;;;;;;5007853;28;20045;-61
2022/09/24 05:07:05;;;;;;;8.98;2.80;;;9.70;99.90;;;;;;5009434;28;20076;-60
2022/09/24 05:09:31;;;;;;;5.75;2.97;;;9.60;99.90;;;;;;5007806;28;20145;-61
2022/09/24 05:12:01;;;;;;;6.18;2.42;;;9.60;99.90;;;;;;5009448;28;20034;-60
2022/09/24 05:14:26;;;;;;;5.72;2.42;;;9.60;99.90;;;;;;4998362;28;20493;-61
2022/09/24 05:16:52;;;;;;;4.18;2.65;;;9.70;99.90;;;;;;5008433;28;20060;-60
2022/09/24 05:19:19;;;;;;;4.75;2.45;;;9.70;99.90;;;;;;5007610;28;20133;-60
2022/09/24 05:21:45;;;;;;;4.65;2.72;;;9.70;99.90;;;;;;5004622;28;20053;-61
2022/09/24 05:24:11;;;;;;;8.68;2.83;;;9.80;99.90;;;;;;5009288;28;20141;-61
2022/09/24 05:29:21;;;;;;;3.88;2.83;;;10.10;99.90;;;;;;5005477;28;20402;-60
2022/09/24 05:31:47;;;;;;;6.55;2.92;;;10.20;99.90;;;;;;5003859;28;20440;-60
2022/09/24 05:34:13;;;;;;;5.70;2.40;;;10.30;99.90;;;;;;5009096;28;20033;-60
2022/09/24 05:36:39;;;;;;;5.32;3.33;;;10.40;99.90;;;;;;5006475;28;20030;-61
2022/09/24 05:39:05;;;;;;;5.15;2.70;;;10.50;99.90;;;;;;5009252;28;20358;-60
2022/09/24 05:41:31;;;;;;;5.47;2.30;;;10.50;99.90;;;;;;5005963;28;20092;-60
2022/09/24 05:43:58;;;;;;;7.28;2.55;;;10.60;99.90;;;;;;5008085;28;20132;-60
2022/09/24 05:46:24;;;;;;;5.30;3.13;;;10.60;99.90;;;;;;5016479;28;20539;-61
2022/09/24 05:48:50;;;;;;;4.53;2.88;;;10.60;99.90;;;;;;5015876;28;20161;-60
2022/09/24 05:51:16;;;;;;;3.55;2.63;;;10.60;99.90;;;;;;5012728;28;20073;-60
2022/09/24 05:53:42;;;;;;;7.28;3.15;;;10.70;99.90;;;;;;5010159;28;20868;-61
2022/09/24 05:56:09;;;;;;;4.85;2.88;;;10.60;99.90;;;;;;5007868;28;20022;-60
2022/09/24 05:58:35;;;;;;;4.60;2.75;;;10.60;99.90;;;;;;5010315;28;20045;-60
2022/09/24 06:01:01;;;;;;;3.58;2.42;;;10.40;99.90;;;;;;5011708;28;20076;-61
2022/09/24 06:03:28;;;;;;;4.45;2.75;;;10.40;99.90;;;;;;5010097;28;20103;-60
2022/09/24 06:05:55;;;;;;;6.57;2.63;;;10.50;99.90;;;;;;5020897;28;20026;-60
2022/09/24 06:08:21;;;;;;;6.53;2.63;;;10.50;99.90;;;;;;5010837;28;20505;-60
2022/09/24 06:10:47;;;;;;;9.13;3.53;;;10.60;99.90;;;;;;5008890;28;20073;-59
2022/09/24 06:13:17;;;;;;;6.50;2.63;;;10.70;99.90;;;;;;5008003;28;20029;-60
2022/09/24 06:15:43;;;;;;;5.70;2.35;;;10.80;99.90;;;;;;5008766;28;20112;-60
2022/09/24 06:18:11;;;;;;;12.32;3.25;;;10.90;99.90;;;;;;5016662;28;20052;-60
2022/09/24 06:20:37;;;;;;;3.33;2.30;;;11.00;99.90;;;;;;5010091;28;20057;-60
2022/09/24 06:23:03;;;;;;;4.20;2.40;;;11.00;99.90;;;;;;5012552;28;20028;-60
2022/09/24 06:25:29;;;;;;;9.15;2.30;;;11.00;99.90;;;;;;5009194;28;20435;-60
2022/09/24 06:28:01;;;;;;;7.05;3.25;;;11.00;99.90;;;;;;5015441;28;20028;-60
2022/09/24 06:30:30;;;;;;;9.80;3.10;;;11.00;99.90;;;;;;5009773;28;20022;-61
2022/09/24 06:33:10;;;;;;;4.82;2.58;;;11.00;99.90;;;;;;5011890;28;20022;-60
2022/09/24 06:35:37;;;;;;;8.93;2.53;;;11.10;99.90;;;;;;5004484;28;20080;-60
2022/09/24 06:38:04;;;;;;;7.32;2.25;;;11.10;99.90;;;;;;5011188;28;20053;-60
2022/09/24 06:40:31;;;;;;;4.80;2.40;;;11.10;99.90;;;;;;5002463;28;20044;-60
2022/09/24 06:42:57;;;;;;;6.07;3.35;;;11.20;99.90;;;;;;4999424;28;20096;-60
2022/09/24 06:45:23;;;;;;;4.93;2.33;;;11.20;99.90;;;;;;5005142;28;20034;-60
2022/09/24 06:47:58;;;;;;;5.43;2.72;;;11.30;99.90;;;;;;5009093;28;20036;-60
2022/09/24 06:50:26;;;;;;;7.30;2.85;;;11.40;99.90;;;;;;5010646;28;20034;-60
2022/09/24 06:52:53;;;;;;;7.53;2.80;;;11.40;99.90;;;;;;5006852;28;20034;-60
2022/09/24 06:55:19;;;;;;;8.52;2.88;;;11.50;99.90;;;;;;5010842;28;20034;-60
2022/09/24 06:57:45;;;;;;;6.28;2.88;;;11.60;99.90;;;;;;5003603;28;20482;-60
2022/09/24 07:00:12;;;;;;;5.75;3.03;;;11.50;99.90;;;;;;5006425;28;20473;-60
2022/09/24 07:02:39;;;;;;;10.25;3.22;;;11.60;99.90;;;;;;5008796;28;20061;-60
2022/09/24 07:05:05;;;;;;;7.32;2.83;;;11.60;99.90;;;;;;5010516;28;20453;-61
2022/09/24 07:07:34;;;;;;;7.07;3.15;;;11.50;99.90;;;;;;5003923;28;20033;-61
2022/09/24 07:10:02;;;;;;;6.65;3.75;;;11.60;99.90;;;;;;5013302;28;20030;-61
2022/09/24 07:12:29;;;;;;;8.88;3.60;;;11.70;99.90;;;;;;5007824;28;20044;-60
2022/09/24 07:14:56;;;;;;;4.43;3.20;;;11.70;99.90;;;;;;5017891;28;20520;-60
2022/09/24 07:17:23;;;;;;;7.43;3.78;;;11.70;99.90;;;;;;5010824;28;20120;-60
2022/09/24 07:19:49;;;;;;;5.60;3.30;;;11.80;99.90;;;;;;5008420;28;20026;-61
2022/09/24 07:22:15;;;;;;;11.10;4.60;;;11.80;99.90;;;;;;5014866;28;20091;-60
2022/09/24 07:24:41;;;;;;;6.60;2.95;;;11.80;99.90;;;;;;5009433;28;20045;-61
2022/09/24 07:27:07;;;;;;;6.47;3.78;;;11.80;99.90;;;;;;5008930;28;20041;-61
2022/09/24 07:29:33;;;;;;;5.82;3.90;;;11.90;99.90;;;;;;5007857;28;20072;-61
2022/09/24 07:32:00;;;;;;;9.38;4.45;;;11.90;99.90;;;;;;5010597;28;20076;-62
2022/09/24 07:34:26;;;;;;;6.90;3.58;;;11.90;99.90;;;;;;5009047;28;20021;-59
2022/09/24 07:36:54;;;;;;;8.60;4.40;;;11.90;99.90;;;;;;5006028;28;20471;-59
2022/09/24 07:39:20;;;;;;;8.02;3.95;;;12.00;99.90;;;;;;5004227;28;20064;-59
2022/09/24 07:41:46;;;;;;;4.60;3.25;;;12.00;99.90;;;;;;5006439;28;20115;-60
2022/09/24 07:44:12;;;;;;;7.20;3.60;;;12.00;99.90;;;;;;5003221;28;20037;-61
2022/09/24 07:46:38;;;;;;;5.32;3.58;;;12.00;99.90;;;;;;5001750;28;20026;-60
2022/09/24 07:49:03;;;;;;;9.80;4.22;;;12.00;99.90;;;;;;5008152;28;20032;-60
2022/09/24 07:51:29;;;;;;;9.13;4.72;;;12.10;99.90;;;;;;5004870;28;20481;-60
2022/09/24 07:53:56;;;;;;;7.90;3.20;;;12.10;99.90;;;;;;5007974;28;20080;-60
2022/09/24 07:56:23;;;;;;;11.18;3.70;;;12.20;99.90;;;;;;5007800;28;20030;-61
2022/09/24 07:58:50;;;;;;;9.77;4.75;;;12.10;99.90;;;;;;5006311;28;20026;-60
2022/09/24 08:01:16;;;;;;;7.20;3.40;;;12.20;99.90;;;;;;5008781;28;20034;-59
2022/09/24 08:03:45;;;;;;;6.45;3.45;;;12.10;99.90;;;;;;5013362;28;21007;-60
2022/09/24 08:06:12;;;;;;;9.48;4.18;;;12.20;99.90;;;;;;5010946;28;20099;-59
2022/09/24 08:08:38;;;;;;;6.57;3.22;;;12.30;99.90;;;;;;5009929;28;20026;-60
2022/09/24 08:11:06;;;;;;;6.20;2.75;;;12.30;99.90;;;;;;5010242;28;20026;-59
2022/09/24 08:13:35;;;;;;;5.30;3.30;;;12.30;99.90;;;;;;5008785;28;20026;-60
2022/09/24 08:16:01;;;;;;;5.03;3.30;;;12.40;99.90;;;;;;5008289;28;20389;-59
2022/09/24 08:18:30;;;;;;;4.13;2.67;;;12.40;99.90;;;;;;5008228;28;20053;-59
2022/09/24 08:21:07;;;;;;;6.03;2.67;;;12.40;99.90;;;;;;5010283;28;20497;-59
2022/09/24 08:23:33;;;;;;;4.50;3.10;;;12.40;99.90;;;;;;5011596;28;20033;-60
2022/09/24 08:25:59;;;;;;;4.57;3.08;;;12.50;99.90;;;;;;5011658;28;20034;-60
2022/09/24 08:28:25;;;;;;;5.50;2.95;;;12.50;99.90;;;;;;5008230;28;20125;-59
2022/09/24 08:30:51;;;;;;;9.00;3.47;;;12.60;99.90;;;;;;5009951;28;20359;-61
2022/09/24 08:33:17;;;;;;;4.22;2.97;;;12.70;99.90;;;;;;5013211;28;20058;-59
2022/09/24 08:35:42;;;;;;;4.60;3.10;;;12.70;99.90;;;;;;5008010;28;20052;-60
2022/09/24 08:38:08;;;;;;;4.32;3.13;;;12.80;99.90;;;;;;5010083;28;20334;-59
2022/09/24 08:40:45;;;;;;;7.40;3.25;;;12.90;99.90;;;;;;5007830;28;20037;-59
2022/09/24 08:43:22;;;;;;;5.25;2.92;;;12.90;99.90;;;;;;5008222;28;20433;-60
2022/09/24 08:48:43;;;;;;;5.38;2.40;;;13.10;99.90;;;;;;5003640;28;20049;-60
2022/09/24 08:51:16;;;;;;;7.15;3.17;;;13.20;99.90;;;;;;5009829;28;20385;-60
2022/09/24 08:53:52;;;;;;;5.10;2.45;;;13.30;99.90;;;;;;5009513;28;20610;-60
2022/09/24 08:56:29;;;;;;;7.07;2.83;;;13.40;99.90;;;;;;5009626;28;20029;-60
2022/09/24 08:59:21;;;;;;;4.68;2.42;;;13.50;99.90;;;;;;5008809;28;20492;-60
2022/09/24 09:01:55;;;;;;;6.45;2.53;;;13.50;99.90;;;;;;5000110;28;20323;-61
2022/09/24 09:04:38;;;;;;;4.03;1.70;;;13.60;99.90;;;;;;5003263;28;20084;-61
2022/09/24 09:07:30;;;;;;;3.90;2.53;;;13.60;99.90;;;;;;5003670;28;20420;-60
2022/09/24 09:10:07;;;;;;;2.55;1.92;;;13.70;99.90;;;;;;5007394;28;20037;-59
2022/09/24 09:12:58;;;;;;;7.57;2.25;;;13.70;99.90;;;;;;4996886;28;20374;-59
2022/09/24 09:15:28;;;;;;;5.50;1.65;;;13.90;99.90;;;;;;5000411;28;20128;-59
2022/09/24 09:18:22;;;;;;;3.78;1.88;;;14.00;99.90;;;;;;5009607;28;20026;-59
2022/09/24 09:20:48;;;;;;;5.90;1.73;;;14.10;99.90;;;;;;5011773;28;20128;-60
2022/09/24 09:23:43;;;;;;;2.40;1.48;;;14.20;99.90;;;;;;5013535;28;20022;-60
2022/09/24 09:26:11;;;;;;;2.60;1.40;;;14.30;99.90;;;;;;5011763;28;20104;-60
2022/09/24 09:28:37;;;;;;;4.60;1.83;;;14.30;99.90;;;;;;5009996;28;20013;-59
2022/09/24 09:31:11;;;;;;;1.60;1.30;;;14.40;99.90;;;;;;5013451;28;20022;-60
2022/09/24 09:33:59;;;;;;;3.00;1.48;;;14.60;99.90;;;;;;5007462;28;20417;-59
2022/09/24 09:36:54;;;;;;;3.83;1.58;;;14.60;99.90;;;;;;5000628;28;20030;-59
2022/09/24 09:39:56;;;;;;;3.55;1.35;;;14.60;99.90;;;;;;5001409;28;20112;-59
2022/09/24 09:42:22;;;;;;;1.67;1.20;;;14.80;99.90;;;;;;5017050;28;20050;-60
2022/09/24 09:44:48;;;;;;;2.63;1.00;;;14.80;99.90;;;;;;5017739;28;20565;-60
2022/09/24 09:47:36;;;;;;;1.88;1.30;;;14.90;99.90;;;;;;5012975;28;20132;-60
2022/09/24 09:50:11;;;;;;;3.05;1.58;;;15.00;99.90;;;;;;5011835;28;20057;-60
2022/09/24 09:52:38;;;;;;;2.22;1.02;;;15.20;99.90;;;;;;5004501;28;20394;-60
2022/09/24 09:55:05;;;;;;;2.85;1.48;;;15.10;99.90;;;;;;5001860;28;20019;-60
2022/09/24 09:57:34;;;;;;;2.67;1.40;;;15.10;99.90;;;;;;5021885;28;20493;-60
2022/09/24 10:00:06;;;;;;;5.85;1.67;;;15.10;99.90;;;;;;5012541;28;20037;-60
2022/09/24 10:02:42;;;;;;;6.50;1.38;;;15.20;99.90;;;;;;5004737;28;20466;-59
2022/09/24 10:05:20;;;;;;;4.07;1.60;;;15.20;99.90;;;;;;5003153;28;20037;-59
2022/09/24 10:07:46;;;;;;;2.08;1.25;;;15.40;99.90;;;;;;5011078;28;20366;-59
2022/09/24 10:10:19;;;;;;;3.97;1.35;;;15.50;99.90;;;;;;5012294;28;20036;-59
2022/09/24 10:12:45;;;;;;;3.10;1.08;;;15.60;99.90;;;;;;5012767;28;20078;-59
2022/09/24 10:15:15;;;;;;;4.85;1.20;;;15.60;99.90;;;;;;5020002;28;20030;-59
2022/09/24 10:17:42;;;;;;;3.40;1.50;;;15.60;99.90;;;;;;5010858;28;20381;-59
2022/09/24 10:20:16;;;;;;;2.15;1.17;;;15.40;99.90;;;;;;5012301;28;20117;-59
2022/09/24 10:23:06;;;;;;;2.15;1.27;;;15.40;99.90;;;;;;5007509;28;20495;-59
2022/09/24 10:25:35;;;;;;;3.15;1.20;;;15.50;99.90;;;;;;5010281;28;20030;-60
2022/09/24 10:30:59;;;;;;;3.67;1.30;;;15.60;99.90;;;;;;4999347;28;20051;-59
2022/09/24 10:33:25;;;;;;;2.45;1.10;;;15.60;99.90;;;;;;5013217;28;20050;-60
2022/09/24 10:36:04;;;;;;;1.83;1.42;;;15.60;99.90;;;;;;5011288;28;20033;-60
2022/09/24 10:38:30;;;;;;;5.68;1.65;;;15.60;99.90;;;;;;5010256;28;20026;-60
2022/09/24 10:41:00;;;;;;;2.33;1.33;;;15.60;99.90;;;;;;5009280;28;20209;-61
2022/09/24 10:43:26;;;;;;;3.92;1.40;;;15.70;99.90;;;;;;5020565;28;20120;-60
2022/09/24 10:46:06;;;;;;;3.60;1.63;;;15.60;99.90;;;;;;5012316;28;20076;-60
2022/09/24 10:48:42;;;;;;;2.10;1.13;;;15.70;99.90;;;;;;5003539;28;20478;-59
2022/09/24 10:51:27;;;;;;;4.43;1.17;;;15.80;99.90;;;;;;4998240;28;20121;-59
2022/09/24 10:54:17;;;;;;;3.65;1.08;;;15.80;99.90;;;;;;5014042;28;20070;-59
2022/09/24 10:56:50;;;;;;;1.25;1.05;;;15.80;99.90;;;;;;5009553;28;20026;-59
2022/09/24 10:59:48;;;;;;;4.85;1.70;;;15.80;99.90;;;;;;5015595;28;20025;-59
2022/09/24 11:02:27;;;;;;;3.15;1.15;;;15.80;99.90;;;;;;5009984;28;20105;-59
2022/09/24 11:05:00;;;;;;;3.45;1.00;;;15.80;99.90;;;;;;5011581;28;20056;-59
2022/09/24 11:07:44;;;;;;;2.88;1.20;;;15.90;99.90;;;;;;5000881;28;20025;-59
2022/09/24 11:10:29;;;;;;;3.20;1.05;;;16.00;99.90;;;;;;5010703;28;20485;-59
2022/09/24 11:13:24;;;;;;;3.85;0.80;;;16.00;99.90;;;;;;4993177;28;20070;-59
2022/09/24 11:16:12;;;;;;;2.17;0.82;;;15.90;99.90;;;;;;5002334;28;20049;-60
2022/09/24 11:18:40;;;;;;;1.83;0.90;;;16.00;99.90;;;;;;5010738;28;20104;-60
2022/09/24 11:21:28;;;;;;;1.15;0.90;;;16.10;99.90;;;;;;5011042;28;20065;-60
2022/09/24 11:24:31;;;;;;;2.63;0.90;;;16.30;99.90;;;;;;5003548;28;20500;-59
2022/09/24 11:27:29;;;;;;;2.35;1.00;;;16.40;99.90;;;;;;5008430;28;20038;-59
2022/09/24 11:30:16;;;;;;;2.55;1.30;;;16.60;99.90;;;;;;5012126;28;20033;-59
2022/09/24 11:33:14;;;;;;;2.25;1.23;;;16.80;99.90;;;;;;5009030;28;20022;-60
2022/09/24 11:36:14;;;;;;;4.32;1.00;;;16.90;99.90;;;;;;5013008;28;20549;-60
2022/09/24 11:38:52;;;;;;;1.92;1.10;;;16.90;99.90;;;;;;5008756;28;20455;-60
2022/09/24 11:41:58;;;;;;;3.10;1.40;;;17.00;99.90;;;;;;4993012;28;20038;-60
2022/09/24 11:44:38;;;;;;;2.28;1.20;;;17.20;99.90;;;;;;5003943;28;20099;-60
2022/09/24 11:47:32;;;;;;;1.13;0.80;;;17.20;99.90;;;;;;5008357;28;20044;-60
2022/09/24 11:50:04;;;;;;;2.83;1.17;;;17.50;99.90;;;;;;5008774;28;20121;-60
2022/09/24 11:52:37;;;;;;;1.52;0.90;;;17.90;99.90;;;;;;5006970;28;20032;-59
2022/09/24 11:55:21;;;;;;;2.30;0.80;;;18.40;99.90;;;;;;5005244;28;20105;-60
2022/09/24 11:57:56;;;;;;;2.67;0.75;;;19.00;99.90;;;;;;5008304;28;20070;-60
2022/09/24 12:00:28;;;;;;;3.20;1.10;;;19.60;99.90;;;;;;5010519;28;20033;-60
2022/09/24 12:03:26;;;;;;;1.30;0.93;;;19.60;99.90;;;;;;5010503;28;20045;-61
2022/09/24 12:06:00;;;;;;;1.55;0.85;;;19.40;99.90;;;;;;5009899;28;20159;-59
2022/09/24 12:08:36;;;;;;;2.45;0.90;;;20.10;99.90;;;;;;5009080;28;20034;-60
2022/09/24 12:11:22;;;;;;;2.15;0.63;;;21.10;99.90;;;;;;5003447;28;20122;-60
2022/09/24 12:14:28;;;;;;;1.88;0.77;;;21.10;99.90;;;;;;4987704;28;20033;-59
2022/09/24 12:17:05;;;;;;;2.97;0.43;;;20.70;99.90;;;;;;4988123;28;20049;-60
2022/09/24 12:19:36;;;;;;;2.35;0.63;;;20.50;99.90;;;;;;5004374;28;20444;-60
2022/09/24 12:22:04;;;;;;;2.33;0.80;;;21.10;99.90;;;;;;5011385;28;20036;-60
2022/09/24 12:24:38;;;;;;;2.03;0.80;;;21.00;99.90;;;;;;5003917;28;20477;-58
2022/09/24 12:27:12;;;;;;;3.03;0.65;;;20.70;99.90;;;;;;5011386;28;20036;-60
2022/09/24 12:33:02;;;;;;;0.40;0.25;;;20.50;99.90;;;;;;5007154;28;20467;-59
2022/09/24 12:35:37;;;;;;;0.38;0.30;;;20.70;99.90;;;;;;5005177;28;20040;-61
2022/09/24 12:38:13;;;;;;;1.85;0.75;;;20.70;99.90;;;;;;5006841;28;20034;-59
2022/09/24 12:41:07;;;;;;;1.48;0.30;;;20.70;99.90;;;;;;4996804;28;20037;-59
2022/09/24 12:43:41;;;;;;;0.80;0.47;;;20.80;99.90;;;;;;5001895;28;20440;-60
2022/09/24 12:46:19;;;;;;;3.40;0.50;;;21.10;99.90;;;;;;5002170;28;20501;-63
2022/09/24 12:48:47;;;;;;;1.35;0.30;;;21.60;99.90;;;;;;5002415;28;20394;-61
2022/09/24 12:51:14;;;;;;;0.95;0.40;;;22.10;99.90;;;;;;4999041;28;20026;-64
2022/09/24 12:53:42;;;;;;;1.35;0.20;;;22.30;99.90;;;;;;5000337;28;20036;-61
2022/09/24 12:56:08;;;;;;;0.95;0.30;;;22.40;99.90;;;;;;5001646;28;20037;-60
2022/09/24 12:58:39;;;;;;;2.90;0.60;;;22.70;99.90;;;;;;5004910;28;20512;-61
2022/09/24 13:01:23;;;;;;;0.35;0.20;;;23.10;99.90;;;;;;5006876;28;20034;-61
2022/09/24 13:04:24;;;;;;;1.90;0.40;;;23.10;99.90;;;;;;4998065;28;20424;-62
2022/09/24 13:06:50;;;;;;;1.63;0.38;;;23.50;99.60;;;;;;4989679;28;20049;-62
2022/09/24 13:09:37;;;;;;;0.65;0.30;;;23.80;96.50;;;;;;5001111;28;20121;-60
2022/09/24 13:12:31;;;;;;;1.48;0.60;;;23.80;96.80;;;;;;5003921;28;20022;-59
2022/09/24 13:15:07;;;;;;;1.45;0.73;;;23.20;97.30;;;;;;5003023;28;20472;-61
2022/09/24 13:17:34;;;;;;;2.97;0.40;;;23.10;98.70;;;;;;5007177;28;20100;-61
2022/09/24 13:20:07;;;;;;;0.20;0.20;;;22.80;99.20;;;;;;4995839;28;20034;-62
2022/09/24 13:22:37;;;;;;;4.03;0.50;;;22.20;99.90;;;;;;4997815;28;20034;-60
2022/09/24 13:25:08;;;;;;;0.30;0.30;;;21.90;99.90;;;;;;5007604;28;20054;-59
2022/09/24 13:27:40;;;;;;;1.33;0.45;;;22.10;99.90;;;;;;5001129;28;20500;-61